createdAt,value
2019-03-09T00:00:47.844Z,992.21
2019-03-09T00:01:47.872Z,992.22
2019-03-09T00:02:47.822Z,992.27
2019-03-09T00:03:47.816Z,992.22
2019-03-09T00:04:47.807Z,992.26
2019-03-09T00:05:47.814Z,992.28
2019-03-09T00:06:47.795Z,992.21
2019-03-09T00:07:47.787Z,992.23
2019-03-09T00:08:47.779Z,992.23
2019-03-09T00:09:47.777Z,992.26
2019-03-09T00:10:47.767Z,992.29
2019-03-09T00:11:47.760Z,992.28
2019-03-09T00:12:47.755Z,992.31
2019-03-09T00:13:47.748Z,992.24
2019-03-09T00:14:47.749Z,992.23
2019-03-09T00:15:47.733Z,992.2
2019-03-09T00:16:47.725Z,992.21
2019-03-09T00:17:47.725Z,992.23
2019-03-09T00:18:47.716Z,992.21
2019-03-09T00:19:47.706Z,992.23
2019-03-09T00:20:47.704Z,992.25
2019-03-09T00:21:47.695Z,992.27
2019-03-09T00:22:47.691Z,992.26
2019-03-09T00:23:47.691Z,992.24
2019-03-09T00:24:47.677Z,992.27
2019-03-09T00:25:47.667Z,992.25
2019-03-09T00:26:47.675Z,992.28
2019-03-09T00:27:47.653Z,992.27
2019-03-09T00:28:47.647Z,992.24
2019-03-09T00:29:47.639Z,992.25
2019-03-09T00:30:47.657Z,992.29
2019-03-09T00:31:47.628Z,992.22
2019-03-09T00:32:47.625Z,992.26
2019-03-09T00:33:47.618Z,992.19
2019-03-09T00:34:47.618Z,992.16
2019-03-09T00:35:47.606Z,992.2
2019-03-09T00:36:47.596Z,992.14
2019-03-09T00:37:47.599Z,992.18
2019-03-09T00:38:47.584Z,992.18
2019-03-09T00:39:47.648Z,992.23
2019-03-09T00:40:47.572Z,992.22
2019-03-09T00:41:47.563Z,992.25
2019-03-09T00:42:47.558Z,992.21
2019-03-09T00:43:47.565Z,992.18
2019-03-09T00:44:47.544Z,992.21
2019-03-09T00:45:47.543Z,992.21
2019-03-09T00:46:47.535Z,992.22
2019-03-09T00:47:47.530Z,992.22
2019-03-09T00:48:47.515Z,992.22
2019-03-09T00:49:47.514Z,992.2
2019-03-09T00:50:47.508Z,992.22
2019-03-09T00:51:47.505Z,992.21
2019-03-09T00:52:47.506Z,992.14
2019-03-09T00:53:47.495Z,992.14
2019-03-09T00:54:47.479Z,992.18
2019-03-09T00:55:47.479Z,992.12
2019-03-09T00:56:47.467Z,992.1
2019-03-09T00:57:47.459Z,992.13
2019-03-09T00:58:47.452Z,992.13
2019-03-09T00:59:47.445Z,992.11
2019-03-09T01:00:47.444Z,992.07
2019-03-09T01:01:47.444Z,992.04
2019-03-09T01:02:47.428Z,992
2019-03-09T01:03:47.419Z,992.01
2019-03-09T01:04:47.419Z,992
2019-03-09T01:05:47.407Z,991.93
2019-03-09T01:06:47.402Z,991.97
2019-03-09T01:07:47.393Z,991.93
2019-03-09T01:08:47.387Z,991.92
2019-03-09T01:09:47.380Z,991.89
2019-03-09T01:10:47.373Z,991.92
2019-03-09T01:11:47.367Z,991.85
2019-03-09T01:12:47.359Z,991.88
2019-03-09T01:13:47.358Z,991.88
2019-03-09T01:14:47.349Z,991.9
2019-03-09T01:15:47.345Z,991.88
2019-03-09T01:16:47.335Z,991.83
2019-03-09T01:17:47.331Z,991.81
2019-03-09T01:18:47.325Z,991.77
2019-03-09T01:19:47.320Z,991.83
2019-03-09T01:20:47.323Z,991.88
2019-03-09T01:21:47.334Z,991.82
2019-03-09T01:22:47.299Z,991.79
2019-03-09T01:23:47.300Z,991.81
2019-03-09T01:24:47.285Z,991.81
2019-03-09T01:25:47.279Z,991.79
2019-03-09T01:26:47.273Z,991.76
2019-03-09T01:27:47.273Z,991.81
2019-03-09T01:28:47.267Z,991.73
2019-03-09T01:29:47.288Z,991.73
2019-03-09T01:30:47.246Z,991.72
2019-03-09T01:31:47.245Z,991.66
2019-03-09T01:32:47.243Z,991.68
2019-03-09T01:33:47.235Z,991.68
2019-03-09T01:34:47.221Z,991.65
2019-03-09T01:35:47.217Z,991.65
2019-03-09T01:36:47.211Z,991.6
2019-03-09T01:37:47.200Z,991.59
2019-03-09T01:38:47.199Z,991.6
2019-03-09T01:39:47.188Z,991.65
2019-03-09T01:40:47.186Z,991.6
2019-03-09T01:41:47.179Z,991.57
2019-03-09T01:42:47.169Z,991.6
2019-03-09T01:43:47.163Z,991.51
2019-03-09T01:44:47.157Z,991.46
2019-03-09T01:45:47.161Z,991.44
2019-03-09T01:46:47.147Z,991.45
2019-03-09T01:47:47.138Z,991.42
2019-03-09T01:48:47.134Z,991.41
2019-03-09T01:49:47.128Z,991.36
2019-03-09T01:50:47.118Z,991.31
2019-03-09T01:51:47.115Z,991.29
2019-03-09T01:52:47.123Z,991.28
2019-03-09T01:53:47.100Z,991.23
2019-03-09T01:54:47.093Z,991.21
2019-03-09T01:55:47.088Z,991.26
2019-03-09T01:56:47.082Z,991.26
2019-03-09T01:57:47.074Z,991.22
2019-03-09T01:58:47.072Z,991.21
2019-03-09T01:59:47.062Z,991.26
2019-03-09T02:00:47.055Z,991.27
2019-03-09T02:01:47.048Z,991.24
2019-03-09T02:02:47.042Z,991.2
2019-03-09T02:03:47.039Z,991.27
2019-03-09T02:04:47.031Z,991.22
2019-03-09T02:05:47.024Z,991.17
2019-03-09T02:06:47.019Z,991.16
2019-03-09T02:07:47.017Z,991.17
2019-03-09T02:08:47.007Z,991.1
2019-03-09T02:09:47.006Z,991.13
2019-03-09T02:10:47.003Z,991.04
2019-03-09T02:11:47.008Z,991.01
2019-03-09T02:12:46.978Z,991.04
2019-03-09T02:13:46.972Z,991.01
2019-03-09T02:14:46.968Z,991.01
2019-03-09T02:15:46.964Z,990.96
2019-03-09T02:16:46.984Z,990.98
2019-03-09T02:17:46.949Z,990.99
2019-03-09T02:18:46.953Z,991.02
2019-03-09T02:19:46.952Z,990.99
2019-03-09T02:20:46.930Z,990.95
2019-03-09T02:21:46.922Z,990.96
2019-03-09T02:22:46.920Z,990.94
2019-03-09T02:23:46.908Z,990.88
2019-03-09T02:24:46.902Z,990.92
2019-03-09T02:25:46.900Z,990.91
2019-03-09T02:26:46.886Z,990.86
2019-03-09T02:27:46.882Z,990.83
2019-03-09T02:28:46.877Z,990.92
2019-03-09T02:29:46.871Z,990.97
2019-03-09T02:30:46.865Z,990.97
2019-03-09T02:31:46.857Z,991
2019-03-09T02:32:46.850Z,990.96
2019-03-09T02:33:46.843Z,990.93
2019-03-09T02:34:46.839Z,990.97
2019-03-09T02:35:46.831Z,990.97
2019-03-09T02:36:46.826Z,990.92
2019-03-09T02:37:46.822Z,990.89
2019-03-09T02:38:46.838Z,990.82
2019-03-09T02:39:46.807Z,990.81
2019-03-09T02:40:46.800Z,990.82
2019-03-09T02:41:46.793Z,990.76
2019-03-09T02:42:46.787Z,990.78
2019-03-09T02:43:46.782Z,990.75
2019-03-09T02:44:46.779Z,990.73
2019-03-09T02:45:46.780Z,990.73
2019-03-09T02:46:46.763Z,990.74
2019-03-09T02:47:46.782Z,990.67
2019-03-09T02:48:46.749Z,990.61
2019-03-09T02:49:46.741Z,990.63
2019-03-09T02:50:46.736Z,990.71
2019-03-09T02:51:46.740Z,990.76
2019-03-09T02:52:46.722Z,990.77
2019-03-09T02:53:46.716Z,990.75
2019-03-09T02:54:46.710Z,990.84
2019-03-09T02:55:46.701Z,990.85
2019-03-09T02:56:46.698Z,990.79
2019-03-09T02:57:46.689Z,990.78
2019-03-09T02:58:46.689Z,990.71
2019-03-09T02:59:46.677Z,990.68
2019-03-09T03:00:46.669Z,990.67
2019-03-09T03:01:46.671Z,990.61
2019-03-09T03:02:46.672Z,990.61
2019-03-09T03:03:46.652Z,990.58
2019-03-09T03:04:46.649Z,990.64
2019-03-09T03:05:46.643Z,990.57
2019-03-09T03:06:46.640Z,990.63
2019-03-09T03:07:46.624Z,990.62
2019-03-09T03:08:46.618Z,990.53
2019-03-09T03:09:46.614Z,990.53
2019-03-09T03:10:46.613Z,990.47
2019-03-09T03:11:46.607Z,990.51
2019-03-09T03:12:46.595Z,990.51
2019-03-09T03:13:46.587Z,990.52
2019-03-09T03:14:46.580Z,990.5
2019-03-09T03:15:46.577Z,990.53
2019-03-09T03:16:46.572Z,990.53
2019-03-09T03:17:46.561Z,990.52
2019-03-09T03:18:46.555Z,990.51
2019-03-09T03:19:46.552Z,990.55
2019-03-09T03:20:46.545Z,990.48
2019-03-09T03:21:46.547Z,990.48
2019-03-09T03:22:46.541Z,990.43
2019-03-09T03:23:46.530Z,990.4
2019-03-09T03:24:46.523Z,990.32
2019-03-09T03:25:46.521Z,990.38
2019-03-09T03:26:46.509Z,990.36
2019-03-09T03:27:46.500Z,990.31
2019-03-09T03:28:46.494Z,990.34
2019-03-09T03:29:46.495Z,990.39
2019-03-09T03:30:46.481Z,990.33
2019-03-09T03:31:46.477Z,990.38
2019-03-09T03:32:46.493Z,990.28
2019-03-09T03:33:46.464Z,990.25
2019-03-09T03:34:46.471Z,990.25
2019-03-09T03:35:46.451Z,990.23
2019-03-09T03:36:46.468Z,990.21
2019-03-09T03:37:46.443Z,990.18
2019-03-09T03:38:46.455Z,990.14
2019-03-09T03:39:46.425Z,990.11
2019-03-09T03:40:46.422Z,990.15
2019-03-09T03:41:46.415Z,990.08
2019-03-09T03:42:46.408Z,990.1
2019-03-09T03:43:46.400Z,990.08
2019-03-09T03:44:46.406Z,989.98
2019-03-09T03:45:46.416Z,990
2019-03-09T03:46:46.397Z,989.98
2019-03-09T03:47:46.382Z,989.98
2019-03-09T03:48:46.373Z,989.93
2019-03-09T03:49:46.367Z,989.92
2019-03-09T03:50:46.361Z,989.97
2019-03-09T03:51:46.361Z,989.88
2019-03-09T03:52:46.346Z,989.85
2019-03-09T03:53:46.341Z,989.79
2019-03-09T03:54:46.408Z,989.82
2019-03-09T03:55:46.327Z,989.79
2019-03-09T03:56:47.318Z,989.78
2019-03-09T03:57:46.318Z,989.82
2019-03-09T03:58:46.307Z,989.79
2019-03-09T03:59:46.300Z,989.79
2019-03-09T04:00:46.300Z,989.82
2019-03-09T04:01:46.300Z,989.8
2019-03-09T04:02:46.298Z,989.74
2019-03-09T04:03:46.281Z,989.68
2019-03-09T04:04:46.280Z,989.69
2019-03-09T04:05:46.266Z,989.71
2019-03-09T04:06:46.259Z,989.7
2019-03-09T04:07:46.252Z,989.63
2019-03-09T04:08:46.248Z,989.65
2019-03-09T04:09:46.245Z,989.68
2019-03-09T04:10:46.233Z,989.68
2019-03-09T04:11:46.234Z,989.66
2019-03-09T04:12:46.221Z,989.7
2019-03-09T04:13:46.216Z,989.73
2019-03-09T04:14:46.210Z,989.71
2019-03-09T04:15:46.205Z,989.75
2019-03-09T04:16:46.206Z,989.7
2019-03-09T04:17:46.193Z,989.66
2019-03-09T04:18:46.187Z,989.79
2019-03-09T04:19:46.181Z,989.73
2019-03-09T04:20:46.178Z,989.68
2019-03-09T04:21:46.169Z,989.62
2019-03-09T04:22:46.172Z,989.6
2019-03-09T04:23:46.153Z,989.6
2019-03-09T04:24:46.150Z,989.53
2019-03-09T04:25:46.146Z,989.55
2019-03-09T04:26:46.148Z,989.55
2019-03-09T04:27:46.142Z,989.6
2019-03-09T04:28:46.123Z,989.6
2019-03-09T04:29:46.123Z,989.62
2019-03-09T04:30:46.114Z,989.52
2019-03-09T04:31:46.115Z,989.55
2019-03-09T04:32:46.124Z,989.59
2019-03-09T04:33:46.095Z,989.59
2019-03-09T04:34:46.337Z,989.62
2019-03-09T04:35:46.085Z,989.63
2019-03-09T04:36:46.074Z,989.62
2019-03-09T04:37:46.068Z,989.63
2019-03-09T04:38:46.060Z,989.57
2019-03-09T04:39:46.058Z,989.55
2019-03-09T04:40:46.055Z,989.67
2019-03-09T04:41:46.043Z,989.68
2019-03-09T04:42:46.041Z,989.74
2019-03-09T04:43:46.037Z,989.73
2019-03-09T04:44:46.036Z,989.65
2019-03-09T04:45:46.021Z,989.84
2019-03-09T04:46:46.013Z,989.73
2019-03-09T04:47:46.016Z,989.61
2019-03-09T04:48:46.003Z,989.65
2019-03-09T04:49:45.992Z,989.79
2019-03-09T04:50:45.989Z,989.72
2019-03-09T04:51:45.982Z,989.68
2019-03-09T04:52:46.007Z,989.66
2019-03-09T04:53:45.969Z,989.62
2019-03-09T04:54:45.965Z,989.71
2019-03-09T04:55:45.956Z,989.77
2019-03-09T04:56:45.949Z,989.7
2019-03-09T04:57:45.944Z,989.76
2019-03-09T04:58:45.940Z,989.71
2019-03-09T04:59:45.933Z,989.79
2019-03-09T05:00:45.926Z,989.7
2019-03-09T05:01:45.922Z,989.77
2019-03-09T05:02:45.929Z,989.73
2019-03-09T05:03:45.906Z,989.78
2019-03-09T05:04:45.911Z,989.78
2019-03-09T05:05:45.903Z,989.88
2019-03-09T05:06:45.895Z,989.77
2019-03-09T05:07:45.886Z,989.89
2019-03-09T05:08:45.874Z,989.87
2019-03-09T05:09:45.870Z,989.95
2019-03-09T05:10:45.904Z,989.96
2019-03-09T05:11:45.860Z,989.86
2019-03-09T05:12:45.852Z,989.87
2019-03-09T05:13:45.844Z,989.97
2019-03-09T05:14:45.850Z,989.83
2019-03-09T05:15:45.848Z,989.9
2019-03-09T05:16:45.841Z,990.02
2019-03-09T05:17:45.819Z,990.07
2019-03-09T05:18:45.814Z,989.99
2019-03-09T05:19:45.807Z,990.03
2019-03-09T05:20:45.803Z,990
2019-03-09T05:21:45.796Z,990.11
2019-03-09T05:22:45.795Z,989.96
2019-03-09T05:23:45.795Z,990.03
2019-03-09T05:24:45.783Z,989.94
2019-03-09T05:25:45.783Z,990.03
2019-03-09T05:26:45.775Z,989.92
2019-03-09T05:27:45.759Z,990.04
2019-03-09T05:28:45.755Z,990.05
2019-03-09T05:29:45.746Z,990.07
2019-03-09T05:30:45.742Z,990.11
2019-03-09T05:31:45.737Z,990.09
2019-03-09T05:32:45.727Z,990.11
2019-03-09T05:33:45.723Z,990.16
2019-03-09T05:34:45.714Z,990.14
2019-03-09T05:35:45.713Z,990.11
2019-03-09T05:36:45.701Z,990.13
2019-03-09T05:37:45.696Z,990.15
2019-03-09T05:38:45.694Z,990.16
2019-03-09T05:39:45.683Z,990.2
2019-03-09T05:40:45.677Z,990.29
2019-03-09T05:41:45.670Z,990.26
2019-03-09T05:42:45.662Z,990.25
2019-03-09T05:43:45.663Z,990.26
2019-03-09T05:44:45.655Z,990.24
2019-03-09T05:45:45.646Z,990.22
2019-03-09T05:46:45.644Z,990.18
2019-03-09T05:47:45.635Z,990.19
2019-03-09T05:48:45.625Z,990.21
2019-03-09T05:49:45.616Z,990.18
2019-03-09T05:50:45.612Z,990.14
2019-03-09T05:51:45.605Z,990.18
2019-03-09T05:52:45.597Z,990.2
2019-03-09T05:53:45.595Z,990.26
2019-03-09T05:54:45.583Z,990.23
2019-03-09T05:55:45.578Z,990.25
2019-03-09T05:56:45.570Z,990.28
2019-03-09T05:57:45.561Z,990.39
2019-03-09T05:58:45.557Z,990.21
2019-03-09T05:59:45.550Z,990.29
2019-03-09T06:00:45.541Z,990.21
2019-03-09T06:01:45.536Z,990.35
2019-03-09T06:02:45.529Z,990.37
2019-03-09T06:03:45.527Z,990.35
2019-03-09T06:04:45.515Z,990.42
2019-03-09T06:05:45.513Z,990.4
2019-03-09T06:06:45.503Z,990.54
2019-03-09T06:07:45.494Z,990.52
2019-03-09T06:08:45.485Z,990.44
2019-03-09T06:09:45.481Z,990.47
2019-03-09T06:10:45.480Z,990.52
2019-03-09T06:11:45.470Z,990.56
2019-03-09T06:12:45.460Z,990.53
2019-03-09T06:13:45.457Z,990.54
2019-03-09T06:14:45.447Z,990.52
2019-03-09T06:15:45.447Z,990.56
2019-03-09T06:16:45.434Z,990.46
2019-03-09T06:17:45.442Z,990.44
2019-03-09T06:18:45.424Z,990.39
2019-03-09T06:19:45.413Z,990.38
2019-03-09T06:20:45.406Z,990.33
2019-03-09T06:21:45.401Z,990.43
2019-03-09T06:22:45.707Z,990.45
2019-03-09T06:23:45.391Z,990.35
2019-03-09T06:24:45.383Z,990.37
2019-03-09T06:25:45.376Z,990.27
2019-03-09T06:26:45.364Z,990.4
2019-03-09T06:27:45.360Z,990.38
2019-03-09T06:28:45.361Z,990.4
2019-03-09T06:29:45.346Z,990.5
2019-03-09T06:30:45.341Z,990.52
2019-03-09T06:31:46.114Z,990.51
2019-03-09T06:32:45.324Z,990.44
2019-03-09T06:33:45.318Z,990.54
2019-03-09T06:34:45.314Z,990.5
2019-03-09T06:35:45.307Z,990.54
2019-03-09T06:36:45.302Z,990.55
2019-03-09T06:37:45.291Z,990.49
2019-03-09T06:38:45.287Z,990.55
2019-03-09T06:39:45.274Z,990.47
2019-03-09T06:40:45.270Z,990.54
2019-03-09T06:41:45.262Z,990.46
2019-03-09T06:42:45.257Z,990.59
2019-03-09T06:43:45.257Z,990.47
2019-03-09T06:44:45.243Z,990.66
2019-03-09T06:45:45.233Z,990.63
2019-03-09T06:46:45.228Z,990.65
2019-03-09T06:47:45.219Z,990.68
2019-03-09T06:48:45.216Z,990.55
2019-03-09T06:49:45.211Z,990.64
2019-03-09T06:50:45.220Z,990.64
2019-03-09T06:51:45.207Z,990.56
2019-03-09T06:52:45.198Z,990.5
2019-03-09T06:53:45.198Z,990.69
2019-03-09T06:54:45.183Z,990.71
2019-03-09T06:55:45.170Z,990.68
2019-03-09T06:56:45.162Z,990.78
2019-03-09T06:57:45.158Z,990.94
2019-03-09T06:58:45.154Z,990.81
2019-03-09T06:59:45.145Z,990.95
2019-03-09T07:00:45.141Z,991.03
2019-03-09T07:01:45.141Z,991.04
2019-03-09T07:02:45.142Z,990.96
2019-03-09T07:03:45.120Z,990.97
2019-03-09T07:04:45.117Z,990.97
2019-03-09T07:05:46.212Z,990.94
2019-03-09T07:06:45.102Z,990.97
2019-03-09T07:07:45.094Z,990.89
2019-03-09T07:08:45.132Z,990.99
2019-03-09T07:09:45.090Z,991.03
2019-03-09T07:10:45.087Z,991.14
2019-03-09T07:11:45.072Z,991.13
2019-03-09T07:12:45.063Z,991.07
2019-03-09T07:13:52.326Z,991.17
2019-03-09T07:14:45.055Z,991.21
2019-03-09T07:15:45.048Z,991.22
2019-03-09T07:16:45.040Z,991.25
2019-03-09T07:17:45.033Z,991.32
2019-03-09T07:18:45.029Z,991.35
2019-03-09T07:19:45.026Z,991.28
2019-03-09T07:20:45.016Z,991.28
2019-03-09T07:21:45.013Z,991.38
2019-03-09T07:22:45.358Z,991.35
2019-03-09T07:23:44.998Z,991.44
2019-03-09T07:24:44.993Z,991.47
2019-03-09T07:25:45.000Z,991.49
2019-03-09T07:26:44.987Z,991.35
2019-03-09T07:27:44.974Z,991.43
2019-03-09T07:28:45.001Z,991.38
2019-03-09T07:29:44.981Z,991.38
2019-03-09T07:30:44.964Z,991.47
2019-03-09T07:31:44.949Z,991.49
2019-03-09T07:32:44.944Z,991.51
2019-03-09T07:33:44.941Z,991.44
2019-03-09T07:34:44.937Z,991.65
2019-03-09T07:35:44.933Z,991.49
2019-03-09T07:36:44.930Z,991.44
2019-03-09T07:37:45.376Z,991.59
2019-03-09T07:38:44.915Z,991.46
2019-03-09T07:39:44.922Z,991.46
2019-03-09T07:40:44.900Z,991.54
2019-03-09T07:41:44.906Z,991.57
2019-03-09T07:42:44.891Z,991.54
2019-03-09T07:43:44.886Z,991.66
2019-03-09T07:44:44.881Z,991.63
2019-03-09T07:45:44.877Z,991.55
2019-03-09T07:46:44.870Z,991.62
2019-03-09T07:47:44.870Z,991.55
2019-03-09T07:48:44.860Z,991.65
2019-03-09T07:49:44.857Z,991.66
2019-03-09T07:50:44.852Z,991.54
2019-03-09T07:51:44.847Z,991.61
2019-03-09T07:52:44.842Z,991.66
2019-03-09T07:53:44.836Z,991.62
2019-03-09T07:54:44.833Z,991.65
2019-03-09T07:55:44.832Z,991.67
2019-03-09T07:56:44.834Z,991.64
2019-03-09T07:57:44.821Z,991.61
2019-03-09T07:58:44.813Z,991.64
2019-03-09T07:59:44.805Z,991.58
2019-03-09T08:00:44.805Z,991.65
2019-03-09T08:01:44.798Z,991.61
2019-03-09T08:02:44.795Z,991.54
2019-03-09T08:03:44.788Z,991.67
2019-03-09T08:04:44.783Z,991.66
2019-03-09T08:05:44.778Z,991.56
2019-03-09T08:06:44.773Z,991.51
2019-03-09T08:07:44.775Z,991.57
2019-03-09T08:08:44.775Z,991.63
2019-03-09T08:09:44.758Z,991.55
2019-03-09T08:10:44.757Z,991.58
2019-03-09T08:11:44.755Z,991.57
2019-03-09T08:12:44.754Z,991.55
2019-03-09T08:13:44.740Z,991.6
2019-03-09T08:14:44.747Z,991.66
2019-03-09T08:15:44.748Z,991.73
2019-03-09T08:16:44.746Z,991.82
2019-03-09T08:17:44.743Z,991.78
2019-03-09T08:18:45.356Z,991.75
2019-03-09T08:19:44.720Z,991.87
2019-03-09T08:20:44.721Z,991.87
2019-03-09T08:21:44.739Z,991.81
2019-03-09T08:22:44.704Z,991.93
2019-03-09T08:23:44.700Z,991.95
2019-03-09T08:24:44.696Z,992.05
2019-03-09T08:25:44.698Z,992
2019-03-09T08:26:44.701Z,992.15
2019-03-09T08:27:44.677Z,992.12
2019-03-09T08:28:44.687Z,992.04
2019-03-09T08:29:44.682Z,992.05
2019-03-09T08:30:44.672Z,992.2
2019-03-09T08:31:44.657Z,992.12
2019-03-09T08:32:44.670Z,991.99
2019-03-09T08:33:44.676Z,992.08
2019-03-09T08:34:44.652Z,992.08
2019-03-09T08:35:44.653Z,992.06
2019-03-09T08:36:44.636Z,992.09
2019-03-09T08:37:44.634Z,992.06
2019-03-09T08:38:44.637Z,992.03
2019-03-09T08:39:44.632Z,992.02
2019-03-09T08:40:44.622Z,992.02
2019-03-09T08:41:44.648Z,992.05
2019-03-09T08:42:44.623Z,992.05
2019-03-09T08:43:44.633Z,992.03
2019-03-09T08:44:44.603Z,992.08
2019-03-09T08:45:44.600Z,992.04
2019-03-09T08:46:44.600Z,992.08
2019-03-09T08:47:51.890Z,992.12
2019-03-09T08:48:44.586Z,992.07
2019-03-09T08:49:44.583Z,992.18
2019-03-09T08:50:44.585Z,992.16
2019-03-09T08:51:44.588Z,992.2
2019-03-09T08:52:44.570Z,992.13
2019-03-09T08:53:44.606Z,992.18
2019-03-09T08:54:44.589Z,992.23
2019-03-09T08:55:44.592Z,992.17
2019-03-09T08:56:44.569Z,992.14
2019-03-09T08:57:44.567Z,992.19
2019-03-09T08:58:44.558Z,992.26
2019-03-09T08:59:44.569Z,992.31
2019-03-09T09:00:44.545Z,992.36
2019-03-09T09:01:44.535Z,992.37
2019-03-09T09:02:44.531Z,992.41
2019-03-09T09:03:44.526Z,992.42
2019-03-09T09:04:44.523Z,992.43
2019-03-09T09:05:44.518Z,992.35
2019-03-09T09:06:44.514Z,992.41
2019-03-09T09:07:44.510Z,992.45
2019-03-09T09:08:44.519Z,992.46
2019-03-09T09:09:44.508Z,992.43
2019-03-09T09:10:44.501Z,992.44
2019-03-09T09:11:45.294Z,992.37
2019-03-09T09:12:45.475Z,992.4
2019-03-09T09:13:44.485Z,992.34
2019-03-09T09:14:44.483Z,992.4
2019-03-09T09:15:44.488Z,992.44
2019-03-09T09:16:44.471Z,992.37
2019-03-09T09:17:44.475Z,992.31
2019-03-09T09:18:44.490Z,992.38
2019-03-09T09:19:44.462Z,992.39
2019-03-09T09:20:44.465Z,992.16
2019-03-09T09:21:44.463Z,992.28
2019-03-09T09:22:44.447Z,992.33
2019-03-09T09:23:44.445Z,992.27
2019-03-09T09:24:44.439Z,992.33
2019-03-09T09:25:44.437Z,992.26
2019-03-09T09:26:44.436Z,992.23
2019-03-09T09:27:44.432Z,992.31
2019-03-09T09:28:44.419Z,992.28
2019-03-09T09:29:44.420Z,992.24
2019-03-09T09:30:44.410Z,992.34
2019-03-09T09:31:44.411Z,992.32
2019-03-09T09:32:44.401Z,992.46
2019-03-09T09:33:44.399Z,992.44
2019-03-09T09:34:44.394Z,992.47
2019-03-09T09:35:44.393Z,992.42
2019-03-09T09:36:44.385Z,992.4
2019-03-09T09:37:44.386Z,992.37
2019-03-09T09:38:44.412Z,992.3
2019-03-09T09:39:44.425Z,992.31
2019-03-09T09:40:44.371Z,992.31
2019-03-09T09:41:44.365Z,992.29
2019-03-09T09:42:44.361Z,992.33
2019-03-09T09:43:44.359Z,992.27
2019-03-09T09:44:44.355Z,992.23
2019-03-09T09:45:44.355Z,992.37
2019-03-09T09:46:44.350Z,992.35
2019-03-09T09:47:44.346Z,992.39
2019-03-09T09:48:44.339Z,992.45
2019-03-09T09:49:44.348Z,992.47
2019-03-09T09:50:44.341Z,992.49
2019-03-09T09:51:44.336Z,992.55
2019-03-09T09:52:44.326Z,992.53
2019-03-09T09:53:44.324Z,992.49
2019-03-09T09:54:44.319Z,992.54
2019-03-09T09:55:44.315Z,992.49
2019-03-09T09:56:44.310Z,992.48
2019-03-09T09:57:44.308Z,992.5
2019-03-09T09:58:44.303Z,992.44
2019-03-09T09:59:44.299Z,992.48
2019-03-09T10:00:44.294Z,992.38
2019-03-09T10:01:44.307Z,992.43
2019-03-09T10:02:44.292Z,992.39
2019-03-09T10:03:44.286Z,992.45
2019-03-09T10:04:44.285Z,992.5
2019-03-09T10:05:44.280Z,992.46
2019-03-09T10:06:44.276Z,992.43
2019-03-09T10:07:44.270Z,992.43
2019-03-09T10:08:44.293Z,992.43
2019-03-09T10:09:44.263Z,992.36
2019-03-09T10:10:44.260Z,992.36
2019-03-09T10:11:44.255Z,992.37
2019-03-09T10:12:44.257Z,992.42
2019-03-09T10:13:44.248Z,992.4
2019-03-09T10:14:44.247Z,992.47
2019-03-09T10:15:44.239Z,992.5
2019-03-09T10:16:44.237Z,992.39
2019-03-09T10:17:44.236Z,992.45
2019-03-09T10:18:44.229Z,992.43
2019-03-09T10:19:44.231Z,992.45
2019-03-09T10:20:45.076Z,992.45
2019-03-09T10:21:44.217Z,992.45
2019-03-09T10:22:44.214Z,992.48
2019-03-09T10:23:44.215Z,992.47
2019-03-09T10:24:44.207Z,992.44
2019-03-09T10:25:44.203Z,992.53
2019-03-09T10:26:44.201Z,992.5
2019-03-09T10:27:44.195Z,992.53
2019-03-09T10:28:44.190Z,992.51
2019-03-09T10:29:44.188Z,992.47
2019-03-09T10:30:44.187Z,992.46
2019-03-09T10:31:44.181Z,992.43
2019-03-09T10:32:44.176Z,992.5
2019-03-09T10:33:44.173Z,992.56
2019-03-09T10:34:44.171Z,992.47
2019-03-09T10:35:44.176Z,992.51
2019-03-09T10:36:44.172Z,992.49
2019-03-09T10:37:44.158Z,992.49
2019-03-09T10:38:44.452Z,992.5
2019-03-09T10:39:44.155Z,992.43
2019-03-09T10:40:44.151Z,992.44
2019-03-09T10:41:44.146Z,992.35
2019-03-09T10:42:44.147Z,992.25
2019-03-09T10:43:44.135Z,992.31
2019-03-09T10:44:44.132Z,992.28
2019-03-09T10:45:44.131Z,992.23
2019-03-09T10:46:44.126Z,992.18
2019-03-09T10:47:44.129Z,992.18
2019-03-09T10:48:44.127Z,992.15
2019-03-09T10:49:44.114Z,992.18
2019-03-09T10:50:44.112Z,992.23
2019-03-09T10:51:44.107Z,992.27
2019-03-09T10:52:44.105Z,992.18
2019-03-09T10:53:44.112Z,992.22
2019-03-09T10:54:44.105Z,992.26
2019-03-09T10:55:44.096Z,992.31
2019-03-09T10:56:44.098Z,992.33
2019-03-09T10:57:44.094Z,992.3
2019-03-09T10:58:44.080Z,992.26
2019-03-09T10:59:44.078Z,992.31
2019-03-09T11:00:44.094Z,992.37
2019-03-09T11:01:44.069Z,992.37
2019-03-09T11:02:44.070Z,992.34
2019-03-09T11:03:44.069Z,992.34
2019-03-09T11:04:44.060Z,992.34
2019-03-09T11:05:44.059Z,992.3
2019-03-09T11:06:44.053Z,992.27
2019-03-09T11:07:44.047Z,992.2
2019-03-09T11:08:44.050Z,992.21
2019-03-09T11:09:44.329Z,992.23
2019-03-09T11:10:44.041Z,992.13
2019-03-09T11:11:44.045Z,992.25
2019-03-09T11:12:44.029Z,992.22
2019-03-09T11:13:51.341Z,992.21
2019-03-09T11:14:44.027Z,992.29
2019-03-09T11:15:44.029Z,992.26
2019-03-09T11:16:44.027Z,992.24
2019-03-09T11:17:44.028Z,992.27
2019-03-09T11:18:44.029Z,992.21
2019-03-09T11:19:44.005Z,992.21
2019-03-09T11:20:44.003Z,992.23
2019-03-09T11:21:43.996Z,992.2
2019-03-09T11:22:44.065Z,992.17
2019-03-09T11:23:44.095Z,992.17
2019-03-09T11:24:43.983Z,992.2
2019-03-09T11:25:43.984Z,992.17
2019-03-09T11:26:43.978Z,992.21
2019-03-09T11:27:43.986Z,992.2
2019-03-09T11:28:43.968Z,992.22
2019-03-09T11:29:43.967Z,992.21
2019-03-09T11:30:43.961Z,992.21
2019-03-09T11:31:43.965Z,992.2
2019-03-09T11:32:43.966Z,992.23
2019-03-09T11:33:43.957Z,992.16
2019-03-09T11:34:43.946Z,992.21
2019-03-09T11:35:43.945Z,992.15
2019-03-09T11:36:43.940Z,992.18
2019-03-09T11:37:43.935Z,992.16
2019-03-09T11:38:43.931Z,992.15
2019-03-09T11:39:43.926Z,992.08
2019-03-09T11:40:43.927Z,992.09
2019-03-09T11:41:43.932Z,992.07
2019-03-09T11:42:43.925Z,992.07
2019-03-09T11:43:43.913Z,992.02
2019-03-09T11:44:43.909Z,991.97
2019-03-09T11:45:43.912Z,991.91
2019-03-09T11:46:43.901Z,991.84
2019-03-09T11:47:43.898Z,991.79
2019-03-09T11:48:43.899Z,991.74
2019-03-09T11:49:43.895Z,991.73
2019-03-09T11:50:43.888Z,991.74
2019-03-09T11:51:43.884Z,991.76
2019-03-09T11:52:43.883Z,991.75
2019-03-09T11:53:43.880Z,991.79
2019-03-09T11:54:43.877Z,991.78
2019-03-09T11:55:43.874Z,991.81
2019-03-09T11:56:43.869Z,991.86
2019-03-09T11:57:43.863Z,991.89
2019-03-09T11:58:43.860Z,991.9
2019-03-09T11:59:43.857Z,991.97
2019-03-09T12:00:43.858Z,992.01
2019-03-09T12:01:43.857Z,992.07
2019-03-09T12:02:43.854Z,992.04
2019-03-09T12:03:43.861Z,992.03
2019-03-09T12:04:46.982Z,992.05
2019-03-09T12:05:43.840Z,992.04
2019-03-09T12:06:43.832Z,992.04
2019-03-09T12:07:43.829Z,992.08
2019-03-09T12:08:43.828Z,992.09
2019-03-09T12:09:43.831Z,992.15
2019-03-09T12:10:43.820Z,992.19
2019-03-09T12:11:43.818Z,992.16
2019-03-09T12:12:43.810Z,992.16
2019-03-09T12:13:43.810Z,992.13
2019-03-09T12:14:43.804Z,992.14
2019-03-09T12:15:43.800Z,992.11
2019-03-09T12:16:43.805Z,992.06
2019-03-09T12:17:43.809Z,992.05
2019-03-09T12:18:43.807Z,992.04
2019-03-09T12:19:43.801Z,992.05
2019-03-09T12:20:43.794Z,992.07
2019-03-09T12:21:43.793Z,992.01
2019-03-09T12:22:43.778Z,992.03
2019-03-09T12:23:43.793Z,992.03
2019-03-09T12:24:43.767Z,991.96
2019-03-09T12:25:43.765Z,991.96
2019-03-09T12:26:43.763Z,991.95
2019-03-09T12:27:43.757Z,991.93
2019-03-09T12:28:43.755Z,991.91
2019-03-09T12:29:43.749Z,992.01
2019-03-09T12:30:43.743Z,992.05